sensor_id;sensor_type;location;lat;lon;timestamp;temperature;humidity
45044;DHT22;30784;48.490;9.688;2023-06-24T00:01:58;19.60;48.80
45044;DHT22;30784;48.490;9.688;2023-06-24T00:04:24;19.60;48.80
45044;DHT22;30784;48.490;9.688;2023-06-24T00:06:50;19.50;48.90
45044;DHT22;30784;48.490;9.688;2023-06-24T00:09:17;19.50;48.90
45044;DHT22;30784;48.490;9.688;2023-06-24T00:11:43;19.50;48.80
45044;DHT22;30784;48.490;9.688;2023-06-24T00:14:09;19.60;48.80
45044;DHT22;30784;48.490;9.688;2023-06-24T00:16:36;19.50;48.80
45044;DHT22;30784;48.490;9.688;2023-06-24T00:19:02;19.50;48.90
45044;DHT22;30784;48.490;9.688;2023-06-24T00:21:28;19.50;49.00
45044;DHT22;30784;48.490;9.688;2023-06-24T00:23:57;19.50;49.10
45044;DHT22;30784;48.490;9.688;2023-06-24T00:26:24;19.50;49.10
45044;DHT22;30784;48.490;9.688;2023-06-24T00:28:50;19.50;49.10
45044;DHT22;30784;48.490;9.688;2023-06-24T00:31:15;19.50;49.10
45044;DHT22;30784;48.490;9.688;2023-06-24T00:33:41;19.40;49.10
45044;DHT22;30784;48.490;9.688;2023-06-24T00:36:07;19.40;49.20
45044;DHT22;30784;48.490;9.688;2023-06-24T00:38:37;19.40;49.30
45044;DHT22;30784;48.490;9.688;2023-06-24T00:41:03;19.40;49.20
45044;DHT22;30784;48.490;9.688;2023-06-24T00:43:28;19.50;49.50
45044;DHT22;30784;48.490;9.688;2023-06-24T00:45:55;19.40;49.50
45044;DHT22;30784;48.490;9.688;2023-06-24T00:48:21;19.40;49.50
45044;DHT22;30784;48.490;9.688;2023-06-24T00:50:47;19.40;49.50
45044;DHT22;30784;48.490;9.688;2023-06-24T00:53:15;19.40;49.60
45044;DHT22;30784;48.490;9.688;2023-06-24T00:55:41;19.50;49.60
45044;DHT22;30784;48.490;9.688;2023-06-24T00:58:06;19.50;49.50
45044;DHT22;30784;48.490;9.688;2023-06-24T01:00:32;19.50;49.60
45044;DHT22;30784;48.490;9.688;2023-06-24T01:03:00;19.40;49.50
45044;DHT22;30784;48.490;9.688;2023-06-24T01:05:29;19.40;49.50
45044;DHT22;30784;48.490;9.688;2023-06-24T01:08:00;19.50;49.50
45044;DHT22;30784;48.490;9.688;2023-06-24T01:10:27;19.40;49.60
45044;DHT22;30784;48.490;9.688;2023-06-24T01:12:52;19.40;49.50
45044;DHT22;30784;48.490;9.688;2023-06-24T01:15:19;19.40;49.70
45044;DHT22;30784;48.490;9.688;2023-06-24T01:21:08;19.40;49.60
45044;DHT22;30784;48.490;9.688;2023-06-24T01:23:55;19.40;49.30
45044;DHT22;30784;48.490;9.688;2023-06-24T01:34:59;19.30;49.50
45044;DHT22;30784;48.490;9.688;2023-06-24T01:42:44;19.20;49.70
45044;DHT22;30784;48.490;9.688;2023-06-24T01:45:16;19.10;49.90
45044;DHT22;30784;48.490;9.688;2023-06-24T01:47:47;19.10;50.00
45044;DHT22;30784;48.490;9.688;2023-06-24T01:50:14;19.10;50.10
45044;DHT22;30784;48.490;9.688;2023-06-24T01:52:43;19.00;50.20
45044;DHT22;30784;48.490;9.688;2023-06-24T01:55:13;19.00;50.30
45044;DHT22;30784;48.490;9.688;2023-06-24T01:57:40;19.00;50.40
45044;DHT22;30784;48.490;9.688;2023-06-24T02:00:08;18.90;50.50
45044;DHT22;30784;48.490;9.688;2023-06-24T02:02:36;18.90;50.60
45044;DHT22;30784;48.490;9.688;2023-06-24T02:05:03;18.80;50.50
45044;DHT22;30784;48.490;9.688;2023-06-24T02:07:31;18.80;50.70
45044;DHT22;30784;48.490;9.688;2023-06-24T02:09:58;18.80;50.80
45044;DHT22;30784;48.490;9.688;2023-06-24T02:12:26;18.70;50.80
45044;DHT22;30784;48.490;9.688;2023-06-24T02:14:52;18.70;50.90
45044;DHT22;30784;48.490;9.688;2023-06-24T02:17:20;18.80;51.10
45044;DHT22;30784;48.490;9.688;2023-06-24T02:19:46;18.70;51.10
45044;DHT22;30784;48.490;9.688;2023-06-24T02:22:13;18.70;51.00
45044;DHT22;30784;48.490;9.688;2023-06-24T02:24:38;18.70;51.10
45044;DHT22;30784;48.490;9.688;2023-06-24T02:27:05;18.60;51.10
45044;DHT22;30784;48.490;9.688;2023-06-24T02:29:32;18.60;51.20
45044;DHT22;30784;48.490;9.688;2023-06-24T02:31:58;18.60;51.10
45044;DHT22;30784;48.490;9.688;2023-06-24T02:34:24;18.50;51.30
45044;DHT22;30784;48.490;9.688;2023-06-24T02:36:49;18.50;51.30
45044;DHT22;30784;48.490;9.688;2023-06-24T02:39:15;18.50;51.40
45044;DHT22;30784;48.490;9.688;2023-06-24T02:41:41;18.50;51.30
45044;DHT22;30784;48.490;9.688;2023-06-24T02:44:07;18.40;51.50
45044;DHT22;30784;48.490;9.688;2023-06-24T02:46:34;18.40;51.50
45044;DHT22;30784;48.490;9.688;2023-06-24T02:49:02;18.40;51.40
45044;DHT22;30784;48.490;9.688;2023-06-24T02:51:28;18.40;51.70
45044;DHT22;30784;48.490;9.688;2023-06-24T02:53:55;18.30;51.50
45044;DHT22;30784;48.490;9.688;2023-06-24T02:56:24;18.30;51.80
45044;DHT22;30784;48.490;9.688;2023-06-24T02:58:51;18.20;51.90
45044;DHT22;30784;48.490;9.688;2023-06-24T03:01:18;18.20;52.00
45044;DHT22;30784;48.490;9.688;2023-06-24T03:03:44;18.20;52.10
45044;DHT22;30784;48.490;9.688;2023-06-24T03:06:14;18.10;52.20
45044;DHT22;30784;48.490;9.688;2023-06-24T03:08:43;18.10;52.10
45044;DHT22;30784;48.490;9.688;2023-06-24T03:11:11;18.00;52.20
45044;DHT22;30784;48.490;9.688;2023-06-24T03:13:37;18.00;52.30
45044;DHT22;30784;48.490;9.688;2023-06-24T03:16:03;18.00;52.50
45044;DHT22;30784;48.490;9.688;2023-06-24T03:18:28;17.90;52.50
45044;DHT22;30784;48.490;9.688;2023-06-24T03:20:54;17.90;52.50
45044;DHT22;30784;48.490;9.688;2023-06-24T03:23:19;17.90;52.60
45044;DHT22;30784;48.490;9.688;2023-06-24T03:25:45;17.90;52.60
45044;DHT22;30784;48.490;9.688;2023-06-24T03:28:10;17.80;52.70
45044;DHT22;30784;48.490;9.688;2023-06-24T03:30:36;17.80;52.80
45044;DHT22;30784;48.490;9.688;2023-06-24T03:33:02;17.80;53.00
45044;DHT22;30784;48.490;9.688;2023-06-24T03:35:27;17.80;53.00
45044;DHT22;30784;48.490;9.688;2023-06-24T03:37:53;17.80;53.00
45044;DHT22;30784;48.490;9.688;2023-06-24T03:40:19;17.80;53.10
45044;DHT22;30784;48.490;9.688;2023-06-24T03:42:45;17.70;53.10
45044;DHT22;30784;48.490;9.688;2023-06-24T03:45:11;17.70;53.10
45044;DHT22;30784;48.490;9.688;2023-06-24T03:47:36;17.70;53.80
45044;DHT22;30784;48.490;9.688;2023-06-24T03:50:04;17.70;53.20
45044;DHT22;30784;48.490;9.688;2023-06-24T03:52:29;17.70;53.40
45044;DHT22;30784;48.490;9.688;2023-06-24T03:54:55;17.70;53.20
45044;DHT22;30784;48.490;9.688;2023-06-24T03:57:20;17.70;53.40
45044;DHT22;30784;48.490;9.688;2023-06-24T03:59:47;17.70;53.40
45044;DHT22;30784;48.490;9.688;2023-06-24T04:02:13;17.70;53.40
45044;DHT22;30784;48.490;9.688;2023-06-24T04:04:39;17.70;53.50
45044;DHT22;30784;48.490;9.688;2023-06-24T04:07:05;17.70;53.60
45044;DHT22;30784;48.490;9.688;2023-06-24T04:09:33;17.70;53.60
45044;DHT22;30784;48.490;9.688;2023-06-24T04:11:59;17.80;53.70
45044;DHT22;30784;48.490;9.688;2023-06-24T04:14:25;17.80;53.70
45044;DHT22;30784;48.490;9.688;2023-06-24T04:16:50;17.80;53.70
45044;DHT22;30784;48.490;9.688;2023-06-24T04:19:16;17.80;53.70
45044;DHT22;30784;48.490;9.688;2023-06-24T04:21:42;17.80;53.70
45044;DHT22;30784;48.490;9.688;2023-06-24T04:24:07;17.90;53.70
45044;DHT22;30784;48.490;9.688;2023-06-24T04:26:33;17.90;53.70
45044;DHT22;30784;48.490;9.688;2023-06-24T04:28:58;18.00;53.80
45044;DHT22;30784;48.490;9.688;2023-06-24T04:31:24;17.90;53.70
45044;DHT22;30784;48.490;9.688;2023-06-24T04:33:51;18.00;53.80
45044;DHT22;30784;48.490;9.688;2023-06-24T04:36:16;18.00;53.80
45044;DHT22;30784;48.490;9.688;2023-06-24T04:38:42;18.00;53.80
45044;DHT22;30784;48.490;9.688;2023-06-24T04:41:07;18.00;53.80
45044;DHT22;30784;48.490;9.688;2023-06-24T04:43:33;18.10;53.80
45044;DHT22;30784;48.490;9.688;2023-06-24T04:46:01;18.10;53.70
45044;DHT22;30784;48.490;9.688;2023-06-24T04:48:27;18.10;53.70
45044;DHT22;30784;48.490;9.688;2023-06-24T04:50:52;18.20;53.70
45044;DHT22;30784;48.490;9.688;2023-06-24T04:53:20;18.10;53.70
45044;DHT22;30784;48.490;9.688;2023-06-24T04:55:46;18.20;53.70
45044;DHT22;30784;48.490;9.688;2023-06-24T04:58:11;18.20;53.60
45044;DHT22;30784;48.490;9.688;2023-06-24T05:00:37;18.30;53.70
45044;DHT22;30784;48.490;9.688;2023-06-24T05:03:03;18.30;53.70
45044;DHT22;30784;48.490;9.688;2023-06-24T05:05:28;18.30;53.70
45044;DHT22;30784;48.490;9.688;2023-06-24T05:07:54;18.40;53.80
45044;DHT22;30784;48.490;9.688;2023-06-24T05:10:19;18.40;53.70
45044;DHT22;30784;48.490;9.688;2023-06-24T05:12:45;18.40;53.70
45044;DHT22;30784;48.490;9.688;2023-06-24T05:15:10;18.50;53.60
45044;DHT22;30784;48.490;9.688;2023-06-24T05:17:36;18.50;53.70
45044;DHT22;30784;48.490;9.688;2023-06-24T05:20:02;18.60;53.80
45044;DHT22;30784;48.490;9.688;2023-06-24T05:22:28;18.60;53.80
45044;DHT22;30784;48.490;9.688;2023-06-24T05:24:54;18.70;53.60
45044;DHT22;30784;48.490;9.688;2023-06-24T05:27:20;18.70;53.20
45044;DHT22;30784;48.490;9.688;2023-06-24T05:29:46;18.80;53.30
45044;DHT22;30784;48.490;9.688;2023-06-24T05:32:11;18.80;53.30
45044;DHT22;30784;48.490;9.688;2023-06-24T05:34:37;18.90;53.00
45044;DHT22;30784;48.490;9.688;2023-06-24T05:37:03;18.90;53.10
45044;DHT22;30784;48.490;9.688;2023-06-24T05:39:29;19.00;53.10
45044;DHT22;30784;48.490;9.688;2023-06-24T05:41:55;19.00;53.00
45044;DHT22;30784;48.490;9.688;2023-06-24T05:44:20;19.10;53.00
45044;DHT22;30784;48.490;9.688;2023-06-24T05:46:46;19.10;52.90
45044;DHT22;30784;48.490;9.688;2023-06-24T05:49:11;19.10;53.00
45044;DHT22;30784;48.490;9.688;2023-06-24T05:51:37;19.20;52.80
45044;DHT22;30784;48.490;9.688;2023-06-24T05:54:03;19.20;52.70
45044;DHT22;30784;48.490;9.688;2023-06-24T05:56:29;19.30;52.70
45044;DHT22;30784;48.490;9.688;2023-06-24T05:58:55;19.30;52.50
45044;DHT22;30784;48.490;9.688;2023-06-24T06:01:21;19.40;52.70
45044;DHT22;30784;48.490;9.688;2023-06-24T06:03:46;19.50;52.60
45044;DHT22;30784;48.490;9.688;2023-06-24T06:06:12;19.50;52.60
45044;DHT22;30784;48.490;9.688;2023-06-24T06:08:37;19.60;52.30
45044;DHT22;30784;48.490;9.688;2023-06-24T06:11:03;19.80;52.30
45044;DHT22;30784;48.490;9.688;2023-06-24T06:13:29;19.90;52.30
45044;DHT22;30784;48.490;9.688;2023-06-24T06:15:55;20.10;52.20
45044;DHT22;30784;48.490;9.688;2023-06-24T06:18:21;20.20;52.00
45044;DHT22;30784;48.490;9.688;2023-06-24T06:20:46;20.30;51.80
45044;DHT22;30784;48.490;9.688;2023-06-24T06:23:12;20.50;51.80
45044;DHT22;30784;48.490;9.688;2023-06-24T06:25:38;20.70;51.70
45044;DHT22;30784;48.490;9.688;2023-06-24T06:28:04;20.80;51.40
45044;DHT22;30784;48.490;9.688;2023-06-24T06:30:30;21.00;51.00
45044;DHT22;30784;48.490;9.688;2023-06-24T06:32:55;21.10;50.80
45044;DHT22;30784;48.490;9.688;2023-06-24T06:35:21;21.20;50.30
45044;DHT22;30784;48.490;9.688;2023-06-24T06:37:46;21.30;50.40
45044;DHT22;30784;48.490;9.688;2023-06-24T06:40:19;21.50;50.00
45044;DHT22;30784;48.490;9.688;2023-06-24T06:42:45;21.60;49.70
45044;DHT22;30784;48.490;9.688;2023-06-24T06:45:11;21.70;49.60
45044;DHT22;30784;48.490;9.688;2023-06-24T06:47:36;21.80;49.50
45044;DHT22;30784;48.490;9.688;2023-06-24T06:50:02;21.90;48.90
45044;DHT22;30784;48.490;9.688;2023-06-24T06:52:28;22.00;48.80
45044;DHT22;30784;48.490;9.688;2023-06-24T06:54:54;22.00;48.80
45044;DHT22;30784;48.490;9.688;2023-06-24T06:57:20;22.20;48.40
45044;DHT22;30784;48.490;9.688;2023-06-24T06:59:45;22.20;48.00
45044;DHT22;30784;48.490;9.688;2023-06-24T07:02:11;22.30;47.90
45044;DHT22;30784;48.490;9.688;2023-06-24T07:04:37;22.40;47.50
45044;DHT22;30784;48.490;9.688;2023-06-24T07:07:02;22.40;47.40
45044;DHT22;30784;48.490;9.688;2023-06-24T07:09:28;22.50;47.30
45044;DHT22;30784;48.490;9.688;2023-06-24T07:11:54;22.50;47.60
45044;DHT22;30784;48.490;9.688;2023-06-24T07:14:19;22.50;47.10
45044;DHT22;30784;48.490;9.688;2023-06-24T07:16:45;22.60;46.90
45044;DHT22;30784;48.490;9.688;2023-06-24T07:19:10;22.60;46.70
45044;DHT22;30784;48.490;9.688;2023-06-24T07:21:37;22.60;46.70
45044;DHT22;30784;48.490;9.688;2023-06-24T07:24:03;22.70;46.40
45044;DHT22;30784;48.490;9.688;2023-06-24T07:26:28;22.70;46.60
45044;DHT22;30784;48.490;9.688;2023-06-24T07:28:57;22.60;46.30
45044;DHT22;30784;48.490;9.688;2023-06-24T07:31:25;22.70;46.40
45044;DHT22;30784;48.490;9.688;2023-06-24T07:33:51;22.70;47.40
45044;DHT22;30784;48.490;9.688;2023-06-24T07:36:17;22.70;46.40
45044;DHT22;30784;48.490;9.688;2023-06-24T07:38:42;22.80;46.00
45044;DHT22;30784;48.490;9.688;2023-06-24T07:41:08;22.70;46.00
45044;DHT22;30784;48.490;9.688;2023-06-24T07:43:33;22.70;45.40
45044;DHT22;30784;48.490;9.688;2023-06-24T07:45:59;22.70;45.90
45044;DHT22;30784;48.490;9.688;2023-06-24T07:48:25;22.60;45.40
45044;DHT22;30784;48.490;9.688;2023-06-24T07:50:50;22.70;45.70
45044;DHT22;30784;48.490;9.688;2023-06-24T07:53:16;22.70;45.40
45044;DHT22;30784;48.490;9.688;2023-06-24T07:55:41;22.70;45.40
45044;DHT22;30784;48.490;9.688;2023-06-24T07:58:07;22.70;45.40
45044;DHT22;30784;48.490;9.688;2023-06-24T08:00:33;22.70;45.40
45044;DHT22;30784;48.490;9.688;2023-06-24T08:02:58;22.70;45.20
45044;DHT22;30784;48.490;9.688;2023-06-24T08:05:24;22.80;45.50
45044;DHT22;30784;48.490;9.688;2023-06-24T08:07:51;22.80;45.60
45044;DHT22;30784;48.490;9.688;2023-06-24T08:10:17;22.90;45.50
45044;DHT22;30784;48.490;9.688;2023-06-24T08:12:42;22.90;45.40
45044;DHT22;30784;48.490;9.688;2023-06-24T08:15:08;22.90;45.30
45044;DHT22;30784;48.490;9.688;2023-06-24T08:17:34;22.90;45.40
45044;DHT22;30784;48.490;9.688;2023-06-24T08:20:01;23.00;45.40
45044;DHT22;30784;48.490;9.688;2023-06-24T08:22:28;23.00;45.20
45044;DHT22;30784;48.490;9.688;2023-06-24T08:24:53;23.10;45.10
45044;DHT22;30784;48.490;9.688;2023-06-24T08:27:19;23.20;45.00
45044;DHT22;30784;48.490;9.688;2023-06-24T08:29:44;23.30;44.80
45044;DHT22;30784;48.490;9.688;2023-06-24T08:32:10;23.30;44.80
45044;DHT22;30784;48.490;9.688;2023-06-24T08:34:35;23.40;44.40
45044;DHT22;30784;48.490;9.688;2023-06-24T08:37:01;23.50;43.70
45044;DHT22;30784;48.490;9.688;2023-06-24T08:39:27;23.50;43.20
45044;DHT22;30784;48.490;9.688;2023-06-24T08:41:52;23.60;43.50
45044;DHT22;30784;48.490;9.688;2023-06-24T08:44:18;23.70;42.70
45044;DHT22;30784;48.490;9.688;2023-06-24T08:46:44;23.70;42.40
45044;DHT22;30784;48.490;9.688;2023-06-24T08:49:19;23.80;42.50
45044;DHT22;30784;48.490;9.688;2023-06-24T08:52:03;23.80;42.50
45044;DHT22;30784;48.490;9.688;2023-06-24T08:54:30;23.90;42.40
45044;DHT22;30784;48.490;9.688;2023-06-24T08:56:59;24.00;42.10
45044;DHT22;30784;48.490;9.688;2023-06-24T08:59:27;24.00;41.80
45044;DHT22;30784;48.490;9.688;2023-06-24T09:01:52;24.00;41.60
45044;DHT22;30784;48.490;9.688;2023-06-24T09:04:18;24.00;41.30
45044;DHT22;30784;48.490;9.688;2023-06-24T09:06:43;24.10;41.20
45044;DHT22;30784;48.490;9.688;2023-06-24T09:09:23;24.20;41.00
45044;DHT22;30784;48.490;9.688;2023-06-24T09:11:54;24.20;41.10
45044;DHT22;30784;48.490;9.688;2023-06-24T09:14:20;24.20;40.50
45044;DHT22;30784;48.490;9.688;2023-06-24T09:16:55;24.30;40.50
45044;DHT22;30784;48.490;9.688;2023-06-24T09:19:26;24.30;40.80
45044;DHT22;30784;48.490;9.688;2023-06-24T09:22:03;24.40;40.60
45044;DHT22;30784;48.490;9.688;2023-06-24T09:24:32;24.50;40.80
45044;DHT22;30784;48.490;9.688;2023-06-24T09:26:58;24.70;40.60
45044;DHT22;30784;48.490;9.688;2023-06-24T09:29:42;24.80;40.20
45044;DHT22;30784;48.490;9.688;2023-06-24T09:32:09;24.90;40.20
45044;DHT22;30784;48.490;9.688;2023-06-24T09:34:35;25.10;39.00
45044;DHT22;30784;48.490;9.688;2023-06-24T09:37:01;25.10;38.30
45044;DHT22;30784;48.490;9.688;2023-06-24T09:39:28;25.20;38.70
45044;DHT22;30784;48.490;9.688;2023-06-24T09:42:01;25.40;38.60
45044;DHT22;30784;48.490;9.688;2023-06-24T09:44:27;25.50;38.40
45044;DHT22;30784;48.490;9.688;2023-06-24T09:46:54;25.70;38.50
45044;DHT22;30784;48.490;9.688;2023-06-24T09:49:21;25.80;38.50
45044;DHT22;30784;48.490;9.688;2023-06-24T09:51:49;26.00;38.30
45044;DHT22;30784;48.490;9.688;2023-06-24T09:54:15;26.10;38.00
45044;DHT22;30784;48.490;9.688;2023-06-24T09:57:02;26.30;38.10
45044;DHT22;30784;48.490;9.688;2023-06-24T09:59:29;26.60;38.10
45044;DHT22;30784;48.490;9.688;2023-06-24T10:01:55;26.80;36.50
45044;DHT22;30784;48.490;9.688;2023-06-24T10:04:21;27.00;35.70
45044;DHT22;30784;48.490;9.688;2023-06-24T10:06:48;27.10;35.10
45044;DHT22;30784;48.490;9.688;2023-06-24T10:09:14;27.20;34.80
45044;DHT22;30784;48.490;9.688;2023-06-24T10:11:43;27.30;34.80
45044;DHT22;30784;48.490;9.688;2023-06-24T10:14:09;27.50;34.40
45044;DHT22;30784;48.490;9.688;2023-06-24T10:16:34;27.60;34.50
45044;DHT22;30784;48.490;9.688;2023-06-24T10:19:01;27.70;34.10
45044;DHT22;30784;48.490;9.688;2023-06-24T10:21:47;27.80;34.00
45044;DHT22;30784;48.490;9.688;2023-06-24T10:24:34;27.90;34.50
45044;DHT22;30784;48.490;9.688;2023-06-24T10:27:07;28.00;34.60
45044;DHT22;30784;48.490;9.688;2023-06-24T10:29:37;28.10;33.80
45044;DHT22;30784;48.490;9.688;2023-06-24T10:32:06;28.10;33.50
45044;DHT22;30784;48.490;9.688;2023-06-24T10:34:34;28.20;33.50
45044;DHT22;30784;48.490;9.688;2023-06-24T10:44:52;28.70;33.40
45044;DHT22;30784;48.490;9.688;2023-06-24T10:47:18;28.80;32.90
45044;DHT22;30784;48.490;9.688;2023-06-24T10:49:43;28.90;31.80
45044;DHT22;30784;48.490;9.688;2023-06-24T10:52:10;28.90;32.00
45044;DHT22;30784;48.490;9.688;2023-06-24T10:54:41;29.00;31.60
45044;DHT22;30784;48.490;9.688;2023-06-24T10:57:07;29.10;31.50
45044;DHT22;30784;48.490;9.688;2023-06-24T10:59:47;29.30;31.50
45044;DHT22;30784;48.490;9.688;2023-06-24T11:02:14;29.40;31.60
45044;DHT22;30784;48.490;9.688;2023-06-24T11:04:47;29.50;31.00
45044;DHT22;30784;48.490;9.688;2023-06-24T11:07:14;29.60;31.20
45044;DHT22;30784;48.490;9.688;2023-06-24T11:09:54;29.60;31.10
45044;DHT22;30784;48.490;9.688;2023-06-24T11:12:24;29.60;31.00
45044;DHT22;30784;48.490;9.688;2023-06-24T11:14:51;29.50;30.60
45044;DHT22;30784;48.490;9.688;2023-06-24T11:17:16;29.40;30.30
45044;DHT22;30784;48.490;9.688;2023-06-24T11:19:44;29.30;30.00
45044;DHT22;30784;48.490;9.688;2023-06-24T11:22:10;29.20;30.30
45044;DHT22;30784;48.490;9.688;2023-06-24T11:24:36;29.10;30.40
45044;DHT22;30784;48.490;9.688;2023-06-24T11:27:03;29.00;30.30
45044;DHT22;30784;48.490;9.688;2023-06-24T11:29:29;28.90;30.60
45044;DHT22;30784;48.490;9.688;2023-06-24T11:31:55;28.80;30.40
45044;DHT22;30784;48.490;9.688;2023-06-24T11:34:21;28.80;30.50
45044;DHT22;30784;48.490;9.688;2023-06-24T11:36:48;28.60;30.30
45044;DHT22;30784;48.490;9.688;2023-06-24T11:39:21;28.50;30.50
45044;DHT22;30784;48.490;9.688;2023-06-24T11:41:47;28.40;30.70
45044;DHT22;30784;48.490;9.688;2023-06-24T11:44:13;28.40;30.60
45044;DHT22;30784;48.490;9.688;2023-06-24T11:46:38;28.40;30.70
45044;DHT22;30784;48.490;9.688;2023-06-24T11:49:06;28.40;30.60
45044;DHT22;30784;48.490;9.688;2023-06-24T11:51:32;28.30;30.50
45044;DHT22;30784;48.490;9.688;2023-06-24T11:54:05;28.30;30.70
45044;DHT22;30784;48.490;9.688;2023-06-24T11:56:41;28.20;30.70
45044;DHT22;30784;48.490;9.688;2023-06-24T11:59:15;28.20;30.50
45044;DHT22;30784;48.490;9.688;2023-06-24T12:01:44;28.30;30.50
45044;DHT22;30784;48.490;9.688;2023-06-24T12:04:11;28.20;30.50
45044;DHT22;30784;48.490;9.688;2023-06-24T12:06:37;28.20;30.70
45044;DHT22;30784;48.490;9.688;2023-06-24T12:09:02;28.10;30.90
45044;DHT22;30784;48.490;9.688;2023-06-24T12:11:28;28.00;30.70
45044;DHT22;30784;48.490;9.688;2023-06-24T12:13:53;28.00;30.90
45044;DHT22;30784;48.490;9.688;2023-06-24T12:16:19;28.00;31.00
45044;DHT22;30784;48.490;9.688;2023-06-24T12:18:44;28.00;31.10
45044;DHT22;30784;48.490;9.688;2023-06-24T12:21:10;28.00;31.00
45044;DHT22;30784;48.490;9.688;2023-06-24T12:23:36;28.10;30.90
45044;DHT22;30784;48.490;9.688;2023-06-24T12:26:01;28.00;30.80
45044;DHT22;30784;48.490;9.688;2023-06-24T12:28:27;27.90;30.80
45044;DHT22;30784;48.490;9.688;2023-06-24T12:30:53;27.90;31.00
45044;DHT22;30784;48.490;9.688;2023-06-24T12:33:18;27.90;31.20
45044;DHT22;30784;48.490;9.688;2023-06-24T12:35:46;27.80;31.00
45044;DHT22;30784;48.490;9.688;2023-06-24T12:38:12;27.80;30.90
45044;DHT22;30784;48.490;9.688;2023-06-24T12:40:37;27.70;30.80
45044;DHT22;30784;48.490;9.688;2023-06-24T12:43:03;27.70;30.80
45044;DHT22;30784;48.490;9.688;2023-06-24T12:45:29;27.70;30.70
45044;DHT22;30784;48.490;9.688;2023-06-24T12:47:55;27.70;30.80
45044;DHT22;30784;48.490;9.688;2023-06-24T12:50:20;27.70;30.80
45044;DHT22;30784;48.490;9.688;2023-06-24T12:52:46;27.70;31.00
45044;DHT22;30784;48.490;9.688;2023-06-24T12:55:11;27.80;31.40
45044;DHT22;30784;48.490;9.688;2023-06-24T12:57:37;27.90;31.20
45044;DHT22;30784;48.490;9.688;2023-06-24T13:00:04;27.90;30.80
45044;DHT22;30784;48.490;9.688;2023-06-24T13:02:35;28.00;30.80
45044;DHT22;30784;48.490;9.688;2023-06-24T13:05:00;28.00;30.90
45044;DHT22;30784;48.490;9.688;2023-06-24T13:07:26;28.00;30.50
45044;DHT22;30784;48.490;9.688;2023-06-24T13:09:52;28.10;30.80
45044;DHT22;30784;48.490;9.688;2023-06-24T13:12:17;28.10;30.50
45044;DHT22;30784;48.490;9.688;2023-06-24T13:14:43;28.10;30.40
45044;DHT22;30784;48.490;9.688;2023-06-24T13:17:08;28.10;29.90
45044;DHT22;30784;48.490;9.688;2023-06-24T13:19:34;28.00;30.00
45044;DHT22;30784;48.490;9.688;2023-06-24T13:21:59;28.00;30.20
45044;DHT22;30784;48.490;9.688;2023-06-24T13:24:25;28.00;29.70
45044;DHT22;30784;48.490;9.688;2023-06-24T13:26:53;27.90;29.70
45044;DHT22;30784;48.490;9.688;2023-06-24T13:29:19;27.90;29.70
45044;DHT22;30784;48.490;9.688;2023-06-24T13:31:47;28.00;30.00
45044;DHT22;30784;48.490;9.688;2023-06-24T13:34:13;28.00;30.30
45044;DHT22;30784;48.490;9.688;2023-06-24T13:36:38;28.00;30.30
45044;DHT22;30784;48.490;9.688;2023-06-24T13:39:08;28.00;30.20
45044;DHT22;30784;48.490;9.688;2023-06-24T13:41:36;28.10;30.50
45044;DHT22;30784;48.490;9.688;2023-06-24T13:44:03;28.10;30.40
45044;DHT22;30784;48.490;9.688;2023-06-24T13:46:29;28.10;30.40
45044;DHT22;30784;48.490;9.688;2023-06-24T13:48:56;28.10;30.10
45044;DHT22;30784;48.490;9.688;2023-06-24T13:51:22;28.20;30.20
45044;DHT22;30784;48.490;9.688;2023-06-24T13:53:49;28.20;30.40
45044;DHT22;30784;48.490;9.688;2023-06-24T13:56:19;28.20;30.30
45044;DHT22;30784;48.490;9.688;2023-06-24T13:58:45;28.20;30.50
45044;DHT22;30784;48.490;9.688;2023-06-24T14:01:11;28.20;30.50
45044;DHT22;30784;48.490;9.688;2023-06-24T14:03:37;28.10;31.00
45044;DHT22;30784;48.490;9.688;2023-06-24T14:06:03;28.10;30.80
45044;DHT22;30784;48.490;9.688;2023-06-24T14:08:30;28.00;30.80
45044;DHT22;30784;48.490;9.688;2023-06-24T14:10:57;27.90;30.80
45044;DHT22;30784;48.490;9.688;2023-06-24T14:13:23;27.80;31.00
45044;DHT22;30784;48.490;9.688;2023-06-24T14:15:49;27.80;31.10
45044;DHT22;30784;48.490;9.688;2023-06-24T14:18:15;27.70;31.40
45044;DHT22;30784;48.490;9.688;2023-06-24T14:20:41;27.70;31.20
45044;DHT22;30784;48.490;9.688;2023-06-24T14:23:06;27.60;31.20
45044;DHT22;30784;48.490;9.688;2023-06-24T14:25:32;27.60;31.00
45044;DHT22;30784;48.490;9.688;2023-06-24T14:27:58;27.60;31.10
45044;DHT22;30784;48.490;9.688;2023-06-24T14:30:23;27.60;30.80
45044;DHT22;30784;48.490;9.688;2023-06-24T14:32:49;27.60;31.10
45044;DHT22;30784;48.490;9.688;2023-06-24T14:35:14;27.70;31.20
45044;DHT22;30784;48.490;9.688;2023-06-24T14:37:40;27.80;31.20
45044;DHT22;30784;48.490;9.688;2023-06-24T14:40:07;27.90;31.20
45044;DHT22;30784;48.490;9.688;2023-06-24T14:42:33;28.10;30.90
45044;DHT22;30784;48.490;9.688;2023-06-24T14:44:59;28.20;31.00
45044;DHT22;30784;48.490;9.688;2023-06-24T14:47:24;28.40;30.80
45044;DHT22;30784;48.490;9.688;2023-06-24T14:49:50;28.50;30.50
45044;DHT22;30784;48.490;9.688;2023-06-24T14:52:15;28.70;30.40
45044;DHT22;30784;48.490;9.688;2023-06-24T14:54:41;28.80;30.50
45044;DHT22;30784;48.490;9.688;2023-06-24T14:57:06;29.00;30.30
45044;DHT22;30784;48.490;9.688;2023-06-24T14:59:32;29.10;30.10
45044;DHT22;30784;48.490;9.688;2023-06-24T15:01:57;29.10;30.00
45044;DHT22;30784;48.490;9.688;2023-06-24T15:04:23;29.10;29.80
45044;DHT22;30784;48.490;9.688;2023-06-24T15:06:48;29.10;30.00
45044;DHT22;30784;48.490;9.688;2023-06-24T15:09:14;29.10;30.00
45044;DHT22;30784;48.490;9.688;2023-06-24T15:11:39;29.00;29.90
45044;DHT22;30784;48.490;9.688;2023-06-24T15:14:05;29.10;30.00
45044;DHT22;30784;48.490;9.688;2023-06-24T15:16:30;29.20;30.00
45044;DHT22;30784;48.490;9.688;2023-06-24T15:18:56;29.30;30.00
45044;DHT22;30784;48.490;9.688;2023-06-24T15:21:22;29.50;30.00
45044;DHT22;30784;48.490;9.688;2023-06-24T15:23:47;29.60;29.70
45044;DHT22;30784;48.490;9.688;2023-06-24T15:26:13;29.80;29.50
45044;DHT22;30784;48.490;9.688;2023-06-24T15:28:38;30.00;29.50
45044;DHT22;30784;48.490;9.688;2023-06-24T15:31:04;30.10;29.30
45044;DHT22;30784;48.490;9.688;2023-06-24T15:33:29;30.30;29.40
45044;DHT22;30784;48.490;9.688;2023-06-24T15:35:55;30.40;29.20
45044;DHT22;30784;48.490;9.688;2023-06-24T15:38:23;30.50;29.10
45044;DHT22;30784;48.490;9.688;2023-06-24T15:40:48;30.60;29.00
45044;DHT22;30784;48.490;9.688;2023-06-24T15:43:14;30.60;28.50
45044;DHT22;30784;48.490;9.688;2023-06-24T15:45:39;30.60;28.50
45044;DHT22;30784;48.490;9.688;2023-06-24T15:48:05;30.50;28.40
45044;DHT22;30784;48.490;9.688;2023-06-24T15:50:31;30.50;28.40
45044;DHT22;30784;48.490;9.688;2023-06-24T15:52:57;30.40;28.50